sensor_id;sensor_type;location;lat;lon;timestamp;pressure;altitude;pressure_sealevel;temperature;humidity
48644;BME280;34928;37.302;-121.984;2023-05-23T00:09:53;100361.0;;;32.97;25.01
48644;BME280;34928;37.302;-121.984;2023-05-23T00:19:58;100358.0;;;32.94;24.87
48644;BME280;34928;37.302;-121.984;2023-05-23T00:30:03;100355.0;;;32.15;25.78
48644;BME280;34928;37.302;-121.984;2023-05-23T00:40:08;100347.0;;;33.23;24.91
48644;BME280;34928;37.302;-121.984;2023-05-23T00:50:13;100357.0;;;33.19;24.84
48644;BME280;34928;37.302;-121.984;2023-05-23T01:00:19;100367.0;;;33.13;24.77
48644;BME280;34928;37.302;-121.984;2023-05-23T01:10:24;100375.0;;;33.21;24.84
48644;BME280;34928;37.302;-121.984;2023-05-23T01:20:33;100378.0;;;33.27;24.85
48644;BME280;34928;37.302;-121.984;2023-05-23T01:30:40;100390.0;;;33.55;25.08
48644;BME280;34928;37.302;-121.984;2023-05-23T01:40:49;100390.0;;;33.81;25.44
48644;BME280;34928;37.302;-121.984;2023-05-23T01:50:53;100397.0;;;33.49;25.84
48644;BME280;34928;37.302;-121.984;2023-05-23T02:00:58;100407.0;;;33.83;25.86
48644;BME280;34928;37.302;-121.984;2023-05-23T02:11:02;100410.0;;;33.90;25.78
48644;BME280;34928;37.302;-121.984;2023-05-23T02:21:07;100414.0;;;33.73;25.58
48644;BME280;34928;37.302;-121.984;2023-05-23T02:31:13;100424.0;;;33.97;25.87
48644;BME280;34928;37.302;-121.984;2023-05-23T02:41:17;100427.0;;;34.10;25.86
48644;BME280;34928;37.302;-121.984;2023-05-23T02:51:24;100441.0;;;34.26;25.65
48644;BME280;34928;37.302;-121.984;2023-05-23T03:01:28;100455.0;;;33.95;25.47
48644;BME280;34928;37.302;-121.984;2023-05-23T03:11:32;100459.0;;;34.23;25.19
48644;BME280;34928;37.302;-121.984;2023-05-23T03:21:38;100455.0;;;33.22;25.26
48644;BME280;34928;37.302;-121.984;2023-05-23T03:31:43;100458.0;;;33.53;24.85
48644;BME280;34928;37.302;-121.984;2023-05-23T03:41:48;100462.0;;;32.72;25.32
48644;BME280;34928;37.302;-121.984;2023-05-23T03:51:53;100466.0;;;33.50;24.65
48644;BME280;34928;37.302;-121.984;2023-05-23T04:01:58;100474.0;;;33.63;24.62
48644;BME280;34928;37.302;-121.984;2023-05-23T04:12:03;100477.0;;;33.55;24.48
48644;BME280;34928;37.302;-121.984;2023-05-23T04:22:07;100490.0;;;33.65;24.25
48644;BME280;34928;37.302;-121.984;2023-05-23T04:32:13;100497.0;;;33.45;24.30
48644;BME280;34928;37.302;-121.984;2023-05-23T04:42:19;100502.0;;;33.30;24.24
48644;BME280;34928;37.302;-121.984;2023-05-23T04:52:23;100508.0;;;32.91;23.93
48644;BME280;34928;37.302;-121.984;2023-05-23T05:02:27;100497.0;;;32.17;24.00
48644;BME280;34928;37.302;-121.984;2023-05-23T05:12:32;100497.0;;;31.79;24.04
48644;BME280;34928;37.302;-121.984;2023-05-23T05:22:38;100498.0;;;31.02;24.49
48644;BME280;34928;37.302;-121.984;2023-05-23T05:32:43;100505.0;;;30.59;24.82
48644;BME280;34928;37.302;-121.984;2023-05-23T05:42:48;100494.0;;;29.92;24.72
48644;BME280;34928;37.302;-121.984;2023-05-23T05:52:53;100503.0;;;29.74;24.99
48644;BME280;34928;37.302;-121.984;2023-05-23T06:02:58;100501.0;;;29.54;25.20
48644;BME280;34928;37.302;-121.984;2023-05-23T06:13:02;100498.0;;;28.90;26.03
48644;BME280;34928;37.302;-121.984;2023-05-23T06:23:08;100483.0;;;28.44;26.57
48644;BME280;34928;37.302;-121.984;2023-05-23T06:33:12;100481.0;;;28.50;26.89
48644;BME280;34928;37.302;-121.984;2023-05-23T06:43:18;100482.0;;;29.59;25.88
48644;BME280;34928;37.302;-121.984;2023-05-23T06:53:22;100485.0;;;29.80;25.68
48644;BME280;34928;37.302;-121.984;2023-05-23T07:03:28;100484.0;;;30.21;25.58
48644;BME280;34928;37.302;-121.984;2023-05-23T07:13:33;100482.0;;;30.34;25.30
48644;BME280;34928;37.302;-121.984;2023-05-23T07:23:39;100488.0;;;30.32;25.38
48644;BME280;34928;37.302;-121.984;2023-05-23T07:33:43;100484.0;;;30.44;25.22
48644;BME280;34928;37.302;-121.984;2023-05-23T07:43:48;100488.0;;;30.41;25.25
48644;BME280;34928;37.302;-121.984;2023-05-23T07:53:52;100479.0;;;30.24;25.42
48644;BME280;34928;37.302;-121.984;2023-05-23T08:03:58;100482.0;;;30.15;25.25
48644;BME280;34928;37.302;-121.984;2023-05-23T08:14:04;100484.0;;;29.86;25.75
48644;BME280;34928;37.302;-121.984;2023-05-23T08:24:07;100483.0;;;30.18;25.25
48644;BME280;34928;37.302;-121.984;2023-05-23T08:34:13;100481.0;;;29.06;26.32
48644;BME280;34928;37.302;-121.984;2023-05-23T08:44:18;100483.0;;;29.56;26.02
48644;BME280;34928;37.302;-121.984;2023-05-23T08:54:23;100481.0;;;29.11;26.21
48644;BME280;34928;37.302;-121.984;2023-05-23T09:04:28;100484.0;;;28.97;26.23
48644;BME280;34928;37.302;-121.984;2023-05-23T09:14:34;100481.0;;;29.85;25.52
48644;BME280;34928;37.302;-121.984;2023-05-23T09:24:38;100490.0;;;30.08;25.46
48644;BME280;34928;37.302;-121.984;2023-05-23T09:34:53;100489.0;;;29.77;25.45
48644;BME280;34928;37.302;-121.984;2023-05-23T09:44:58;100480.0;;;29.43;25.68
48644;BME280;34928;37.302;-121.984;2023-05-23T09:55:04;100475.0;;;29.62;25.69
48644;BME280;34928;37.302;-121.984;2023-05-23T10:05:10;100474.0;;;29.31;25.67
48644;BME280;34928;37.302;-121.984;2023-05-23T10:15:25;100471.0;;;29.57;25.60
48644;BME280;34928;37.302;-121.984;2023-05-23T10:25:33;100467.0;;;29.48;25.60
48644;BME280;34928;37.302;-121.984;2023-05-23T10:35:44;100467.0;;;29.42;25.60
48644;BME280;34928;37.302;-121.984;2023-05-23T10:45:52;100460.0;;;29.28;25.64
48644;BME280;34928;37.302;-121.984;2023-05-23T10:55:57;100474.0;;;29.37;25.72
48644;BME280;34928;37.302;-121.984;2023-05-23T11:06:04;100473.0;;;28.97;25.82
48644;BME280;34928;37.302;-121.984;2023-05-23T11:26:30;100463.0;;;28.84;25.75
48644;BME280;34928;37.302;-121.984;2023-05-23T11:36:38;100468.0;;;28.94;25.54
48644;BME280;34928;37.302;-121.984;2023-05-23T11:57:03;100475.0;;;28.85;25.46
48644;BME280;34928;37.302;-121.984;2023-05-23T12:07:08;100480.0;;;28.72;25.55
48644;BME280;34928;37.302;-121.984;2023-05-23T12:17:13;100487.0;;;28.72;25.73
48644;BME280;34928;37.302;-121.984;2023-05-23T12:27:18;100491.0;;;28.72;25.65
48644;BME280;34928;37.302;-121.984;2023-05-23T12:37:23;100493.0;;;28.39;25.69
48644;BME280;34928;37.302;-121.984;2023-05-23T12:47:28;100509.0;;;28.45;25.82
48644;BME280;34928;37.302;-121.984;2023-05-23T12:57:34;100510.0;;;28.56;25.61
48644;BME280;34928;37.302;-121.984;2023-05-23T13:07:38;100506.0;;;28.19;25.75
48644;BME280;34928;37.302;-121.984;2023-05-23T13:17:43;100510.0;;;28.40;25.64
48644;BME280;34928;37.302;-121.984;2023-05-23T13:27:49;100518.0;;;28.30;25.70
48644;BME280;34928;37.302;-121.984;2023-05-23T13:37:53;100521.0;;;28.44;25.71
48644;BME280;34928;37.302;-121.984;2023-05-23T13:47:58;100536.0;;;28.43;25.67
48644;BME280;34928;37.302;-121.984;2023-05-23T13:58:03;100532.0;;;28.45;25.56
48644;BME280;34928;37.302;-121.984;2023-05-23T14:08:08;100535.0;;;28.52;25.97
48644;BME280;34928;37.302;-121.984;2023-05-23T14:18:13;100540.0;;;28.25;26.93
48644;BME280;34928;37.302;-121.984;2023-05-23T14:28:18;100546.0;;;28.29;26.93
48644;BME280;34928;37.302;-121.984;2023-05-23T14:38:22;100533.0;;;28.13;26.05
48644;BME280;34928;37.302;-121.984;2023-05-23T14:48:28;100540.0;;;28.21;25.84
48644;BME280;34928;37.302;-121.984;2023-05-23T14:58:33;100538.0;;;28.07;25.71
48644;BME280;34928;37.302;-121.984;2023-05-23T15:08:38;100542.0;;;28.41;25.46
48644;BME280;34928;37.302;-121.984;2023-05-23T15:18:43;100538.0;;;28.49;25.28
48644;BME280;34928;37.302;-121.984;2023-05-23T15:28:47;100541.0;;;28.67;24.95
48644;BME280;34928;37.302;-121.984;2023-05-23T15:38:52;100536.0;;;28.23;25.16
48644;BME280;34928;37.302;-121.984;2023-05-23T15:48:58;100537.0;;;28.04;24.90
48644;BME280;34928;37.302;-121.984;2023-05-23T15:59:03;100530.0;;;28.57;24.56
48644;BME280;34928;37.302;-121.984;2023-05-23T16:09:07;100537.0;;;28.66;24.45
48644;BME280;34928;37.302;-121.984;2023-05-23T16:19:12;100531.0;;;28.59;24.36
48644;BME280;34928;37.302;-121.984;2023-05-23T16:29:17;100523.0;;;28.37;24.36
48644;BME280;34928;37.302;-121.984;2023-05-23T16:39:23;100531.0;;;28.44;24.43
48644;BME280;34928;37.302;-121.984;2023-05-23T16:49:29;100543.0;;;28.81;24.43
48644;BME280;34928;37.302;-121.984;2023-05-23T16:59:33;100549.0;;;28.68;24.03
48644;BME280;34928;37.302;-121.984;2023-05-23T17:09:38;100544.0;;;28.80;23.97
48644;BME280;34928;37.302;-121.984;2023-05-23T17:19:43;100542.0;;;28.15;24.27
48644;BME280;34928;37.302;-121.984;2023-05-23T17:29:47;100550.0;;;29.06;23.99
48644;BME280;34928;37.302;-121.984;2023-05-23T17:39:53;100549.0;;;28.18;24.40
48644;BME280;34928;37.302;-121.984;2023-05-23T17:49:58;100553.0;;;28.30;24.28
48644;BME280;34928;37.302;-121.984;2023-05-23T18:00:03;100555.0;;;28.24;23.98
48644;BME280;34928;37.302;-121.984;2023-05-23T18:10:09;100555.0;;;28.76;23.92
48644;BME280;34928;37.302;-121.984;2023-05-23T18:20:13;100549.0;;;28.94;23.85
48644;BME280;34928;37.302;-121.984;2023-05-23T18:30:18;100546.0;;;29.02;23.84
48644;BME280;34928;37.302;-121.984;2023-05-23T18:40:23;100547.0;;;28.97;23.64
48644;BME280;34928;37.302;-121.984;2023-05-23T18:50:28;100550.0;;;29.00;23.61
48644;BME280;34928;37.302;-121.984;2023-05-23T19:00:33;100555.0;;;28.91;23.63
48644;BME280;34928;37.302;-121.984;2023-05-23T19:10:39;100545.0;;;29.17;23.40
48644;BME280;34928;37.302;-121.984;2023-05-23T19:20:42;100543.0;;;28.86;23.26
48644;BME280;34928;37.302;-121.984;2023-05-23T19:30:48;100543.0;;;29.25;23.26
48644;BME280;34928;37.302;-121.984;2023-05-23T19:40:53;100530.0;;;28.81;23.63
48644;BME280;34928;37.302;-121.984;2023-05-23T19:50:58;100524.0;;;28.38;24.63
48644;BME280;34928;37.302;-121.984;2023-05-23T20:01:03;100524.0;;;29.19;23.66
48644;BME280;34928;37.302;-121.984;2023-05-23T20:11:08;100510.0;;;29.61;23.15
48644;BME280;34928;37.302;-121.984;2023-05-23T20:21:12;100497.0;;;29.10;23.66
48644;BME280;34928;37.302;-121.984;2023-05-23T20:31:18;100493.0;;;29.82;22.82
48644;BME280;34928;37.302;-121.984;2023-05-23T20:41:22;100484.0;;;29.82;22.66
48644;BME280;34928;37.302;-121.984;2023-05-23T20:51:27;100470.0;;;30.13;22.75
48644;BME280;34928;37.302;-121.984;2023-05-23T21:01:33;100477.0;;;29.99;22.66
48644;BME280;34928;37.302;-121.984;2023-05-23T21:11:38;100465.0;;;30.31;22.69
48644;BME280;34928;37.302;-121.984;2023-05-23T21:21:43;100453.0;;;29.58;23.07
48644;BME280;34928;37.302;-121.984;2023-05-23T21:31:47;100444.0;;;29.69;22.93
48644;BME280;34928;37.302;-121.984;2023-05-23T21:41:53;100450.0;;;29.55;23.28
48644;BME280;34928;37.302;-121.984;2023-05-23T21:51:58;100448.0;;;29.47;23.40
48644;BME280;34928;37.302;-121.984;2023-05-23T22:02:08;100447.0;;;29.14;23.47
48644;BME280;34928;37.302;-121.984;2023-05-23T22:12:13;100449.0;;;30.40;22.46
48644;BME280;34928;37.302;-121.984;2023-05-23T22:22:18;100452.0;;;30.12;22.66
48644;BME280;34928;37.302;-121.984;2023-05-23T22:32:23;100449.0;;;30.29;22.96
48644;BME280;34928;37.302;-121.984;2023-05-23T22:42:27;100444.0;;;30.49;22.71
48644;BME280;34928;37.302;-121.984;2023-05-23T22:52:33;100436.0;;;29.96;23.27
48644;BME280;34928;37.302;-121.984;2023-05-23T23:02:38;100442.0;;;30.43;23.65
48644;BME280;34928;37.302;-121.984;2023-05-23T23:12:43;100427.0;;;30.26;23.51
48644;BME280;34928;37.302;-121.984;2023-05-23T23:22:48;100424.0;;;30.17;23.11
48644;BME280;34928;37.302;-121.984;2023-05-23T23:32:52;100420.0;;;30.04;23.20
48644;BME280;34928;37.302;-121.984;2023-05-23T23:42:58;100420.0;;;29.86;22.89
48644;BME280;34928;37.302;-121.984;2023-05-23T23:53:03;100408.0;;;30.48;22.52
